createdAt,value
2018-03-25T00:01:43.718Z,83.10
2018-03-25T00:04:11.857Z,82.80
2018-03-25T00:06:39.962Z,82.90
2018-03-25T00:09:08.100Z,83.30
2018-03-25T00:11:36.206Z,84.30
2018-03-25T00:14:04.348Z,84.00
2018-03-25T00:16:32.468Z,84.20
2018-03-25T00:19:00.605Z,84.80
2018-03-25T00:21:28.712Z,84.90
2018-03-25T00:23:56.840Z,84.20
2018-03-25T00:26:24.955Z,83.80
2018-03-25T00:28:53.071Z,83.40
2018-03-25T00:31:21.945Z,83.40
2018-03-25T00:33:50.077Z,83.30
2018-03-25T00:36:18.191Z,82.90
2018-03-25T00:38:46.319Z,82.70
2018-03-25T00:41:14.418Z,82.80
2018-03-25T00:43:42.552Z,82.00
2018-03-25T00:46:10.733Z,81.90
2018-03-25T00:48:38.835Z,81.80
2018-03-25T00:51:06.941Z,81.60
2018-03-25T00:53:35.840Z,82.00
2018-03-25T00:56:04.716Z,81.90
2018-03-25T00:58:32.873Z,81.80
2018-03-25T01:01:00.983Z,81.70
2018-03-25T01:03:29.106Z,81.70
2018-03-25T01:05:57.236Z,81.80
2018-03-25T01:08:25.356Z,81.70
2018-03-25T01:10:53.473Z,81.60
2018-03-25T01:13:22.372Z,81.70
2018-03-25T01:16:02.132Z,81.60
2018-03-25T01:18:30.256Z,81.50
2018-03-25T01:20:58.359Z,81.90
2018-03-25T01:23:26.490Z,82.00
2018-03-25T01:25:54.604Z,82.30
2018-03-25T01:28:22.732Z,82.50
2018-03-25T01:30:50.844Z,81.90
2018-03-25T01:33:19.741Z,82.60
2018-03-25T01:35:47.855Z,82.60
2018-03-25T01:38:15.978Z,82.30
2018-03-25T01:40:44.853Z,82.30
2018-03-25T01:43:12.976Z,82.30
2018-03-25T01:45:41.074Z,82.00
2018-03-25T01:48:09.214Z,83.30
2018-03-25T01:50:37.316Z,83.90
2018-03-25T01:53:05.440Z,83.80
2018-03-25T01:55:33.553Z,84.20
2018-03-25T01:58:01.654Z,84.40
2018-03-25T02:00:29.779Z,84.70
2018-03-25T02:02:57.889Z,84.10
2018-03-25T02:05:26.014Z,83.70
2018-03-25T02:07:54.118Z,83.90
2018-03-25T02:10:22.253Z,83.90
2018-03-25T02:12:50.371Z,83.60
2018-03-25T02:15:18.507Z,83.30
2018-03-25T02:17:46.618Z,83.00
2018-03-25T02:20:14.755Z,82.70
2018-03-25T02:22:42.883Z,82.30
2018-03-25T02:25:11.004Z,82.20
2018-03-25T02:27:39.134Z,81.90
2018-03-25T02:30:07.247Z,82.20
2018-03-25T02:32:35.354Z,82.70
2018-03-25T02:35:03.502Z,82.40
2018-03-25T02:37:31.605Z,82.30
2018-03-25T02:39:59.744Z,82.00
2018-03-25T02:42:27.848Z,82.30
2018-03-25T02:44:56.620Z,82.50
2018-03-25T02:47:24.728Z,82.40
2018-03-25T02:49:52.895Z,82.40
2018-03-25T02:52:21.013Z,82.50
2018-03-25T02:54:49.165Z,82.60
2018-03-25T02:57:18.053Z,83.20
2018-03-25T02:59:46.180Z,83.20
2018-03-25T03:02:14.291Z,83.70
2018-03-25T03:04:42.429Z,83.70
2018-03-25T03:07:10.537Z,83.80
2018-03-25T03:09:38.667Z,84.20
2018-03-25T03:12:06.770Z,84.20
2018-03-25T03:14:34.895Z,84.10
2018-03-25T03:17:03.006Z,83.60
2018-03-25T03:19:31.139Z,83.30
2018-03-25T03:21:59.246Z,82.40
2018-03-25T03:24:27.363Z,82.20
2018-03-25T03:26:56.226Z,82.70
2018-03-25T03:29:24.361Z,82.70
2018-03-25T03:31:52.467Z,82.50
2018-03-25T03:34:20.602Z,82.80
2018-03-25T03:36:48.718Z,83.20
2018-03-25T03:39:16.843Z,82.90
2018-03-25T03:41:44.949Z,82.50
2018-03-25T03:44:13.075Z,82.50
2018-03-25T03:46:41.198Z,82.70
2018-03-25T03:49:09.324Z,82.90
2018-03-25T03:51:37.452Z,83.00
2018-03-25T03:54:05.579Z,82.80
2018-03-25T03:56:33.724Z,82.90
2018-03-25T03:59:02.795Z,83.20
2018-03-25T04:01:30.916Z,83.20
2018-03-25T04:03:59.043Z,83.20
2018-03-25T04:06:27.143Z,83.50
2018-03-25T04:08:56.035Z,83.80
2018-03-25T04:11:24.903Z,84.20
2018-03-25T04:13:53.050Z,84.20
2018-03-25T04:16:21.172Z,84.30
2018-03-25T04:18:50.067Z,84.40
2018-03-25T04:21:18.183Z,84.20
2018-03-25T04:23:46.319Z,84.10
2018-03-25T04:26:14.456Z,83.80
2018-03-25T04:28:42.554Z,83.40
2018-03-25T04:31:11.456Z,83.10
2018-03-25T04:33:39.576Z,83.20
2018-03-25T04:36:07.710Z,83.60
2018-03-25T04:38:35.819Z,83.30
2018-03-25T04:41:03.948Z,83.10
2018-03-25T04:43:32.050Z,83.20
2018-03-25T04:46:00.187Z,83.00
2018-03-25T04:48:28.296Z,82.70
2018-03-25T04:50:56.449Z,82.60
2018-03-25T04:53:24.544Z,82.60
2018-03-25T04:55:52.674Z,82.70
2018-03-25T04:58:20.806Z,82.70
2018-03-25T05:00:48.932Z,83.00
2018-03-25T05:03:17.035Z,83.60
2018-03-25T05:05:45.172Z,83.80
2018-03-25T05:08:13.270Z,83.60
2018-03-25T05:10:41.405Z,83.40
2018-03-25T05:13:10.277Z,83.40
2018-03-25T05:15:38.402Z,83.30
2018-03-25T05:18:06.514Z,83.40
2018-03-25T05:20:34.657Z,83.40
2018-03-25T05:23:02.765Z,83.50
2018-03-25T05:25:30.899Z,83.60
2018-03-25T05:27:59.045Z,83.70
2018-03-25T05:30:27.134Z,83.30
2018-03-25T05:32:55.250Z,83.30
2018-03-25T05:35:23.376Z,83.30
2018-03-25T05:37:51.501Z,83.00
2018-03-25T05:40:19.741Z,82.90
2018-03-25T05:42:47.844Z,83.00
2018-03-25T05:45:15.975Z,83.40
2018-03-25T05:47:44.087Z,82.60
2018-03-25T05:50:12.220Z,82.50
2018-03-25T05:52:40.320Z,81.90
2018-03-25T05:55:08.450Z,81.90
2018-03-25T05:57:36.568Z,81.90
2018-03-25T06:00:05.805Z,80.40
2018-03-25T06:02:34.687Z,79.20
2018-03-25T06:05:02.910Z,78.20
2018-03-25T06:07:31.025Z,78.00
2018-03-25T06:09:59.152Z,78.00
2018-03-25T06:12:27.256Z,78.30
2018-03-25T06:14:55.383Z,77.10
2018-03-25T06:17:23.500Z,76.30
2018-03-25T06:19:51.623Z,76.00
2018-03-25T06:22:20.507Z,74.70
2018-03-25T06:24:49.392Z,73.60
2018-03-25T06:27:18.278Z,73.00
2018-03-25T06:29:46.400Z,73.00
2018-03-25T06:32:14.519Z,72.20
2018-03-25T06:34:42.660Z,71.70
2018-03-25T06:37:10.774Z,70.30
2018-03-25T06:39:38.939Z,69.20
2018-03-25T06:42:07.039Z,66.80
2018-03-25T06:44:35.178Z,65.20
2018-03-25T06:47:03.274Z,63.60
2018-03-25T06:49:32.179Z,60.10
2018-03-25T06:52:00.306Z,60.10
2018-03-25T06:54:28.404Z,59.00
2018-03-25T06:56:57.293Z,56.90
2018-03-25T06:59:25.390Z,56.80
2018-03-25T07:01:53.533Z,57.00
2018-03-25T07:04:21.644Z,58.00
2018-03-25T07:06:49.776Z,58.20
2018-03-25T07:09:17.883Z,57.50
2018-03-25T07:11:46.009Z,58.90
2018-03-25T07:14:14.108Z,59.50
2018-03-25T07:16:43.007Z,56.80
2018-03-25T07:19:12.676Z,56.40
2018-03-25T07:21:40.817Z,56.40
2018-03-25T07:24:08.945Z,54.80
2018-03-25T07:26:37.119Z,53.30
2018-03-25T07:29:05.823Z,53.80
2018-03-25T07:31:34.005Z,52.30
2018-03-25T07:34:02.882Z,49.60
2018-03-25T07:36:31.202Z,49.50
2018-03-25T07:38:59.342Z,48.40
2018-03-25T07:41:28.236Z,46.40
2018-03-25T07:43:57.221Z,45.80
2018-03-25T07:46:26.129Z,45.70
2018-03-25T07:48:55.408Z,43.40
2018-03-25T07:51:24.312Z,43.00
2018-03-25T07:53:53.219Z,42.10
2018-03-25T07:56:21.346Z,41.90
2018-03-25T07:58:49.471Z,42.50
2018-03-25T08:01:17.605Z,44.70
2018-03-25T08:03:45.720Z,44.30
2018-03-25T08:06:13.856Z,43.60
2018-03-25T08:08:42.034Z,43.20
2018-03-25T08:11:10.183Z,44.20
2018-03-25T08:13:38.296Z,44.80
2018-03-25T08:16:07.791Z,45.10
2018-03-25T08:18:35.874Z,45.60
2018-03-25T08:21:04.020Z,46.00
2018-03-25T08:23:32.127Z,46.00
2018-03-25T08:26:00.264Z,45.20
2018-03-25T08:28:28.472Z,45.00
2018-03-25T08:30:56.609Z,45.50
2018-03-25T08:33:24.732Z,44.80
2018-03-25T08:35:52.874Z,44.30
2018-03-25T08:38:21.761Z,42.30
2018-03-25T08:40:50.664Z,40.10
2018-03-25T08:43:19.543Z,38.10
2018-03-25T08:45:48.457Z,36.80
2018-03-25T08:48:16.564Z,36.80
2018-03-25T08:50:44.857Z,34.90
2018-03-25T08:53:12.979Z,33.20
2018-03-25T08:55:41.125Z,34.40
2018-03-25T08:58:09.231Z,33.50
2018-03-25T09:00:37.372Z,32.00
2018-03-25T09:03:05.489Z,31.30
2018-03-25T09:05:33.612Z,30.10
2018-03-25T09:08:01.765Z,30.00
2018-03-25T09:10:29.927Z,30.20
2018-03-25T09:12:58.077Z,30.20
2018-03-25T09:15:26.486Z,29.40
2018-03-25T09:17:55.745Z,29.30
2018-03-25T09:20:24.046Z,29.30
2018-03-25T09:22:52.184Z,29.30
2018-03-25T09:25:21.058Z,28.70
2018-03-25T09:27:49.188Z,28.70
2018-03-25T09:30:17.304Z,28.10
2018-03-25T09:32:45.438Z,28.30
2018-03-25T09:35:13.556Z,27.80
2018-03-25T09:37:42.455Z,27.40
2018-03-25T09:40:16.068Z,27.10
2018-03-25T09:42:45.754Z,27.20
2018-03-25T09:45:14.627Z,27.70
2018-03-25T09:47:42.789Z,27.70
2018-03-25T09:50:11.303Z,28.60
2018-03-25T09:52:40.231Z,28.60
2018-03-25T09:55:08.348Z,28.60
2018-03-25T09:57:36.491Z,28.90
2018-03-25T10:00:05.001Z,29.00
2018-03-25T10:02:40.426Z,30.00
2018-03-25T10:05:08.542Z,30.00
2018-03-25T10:07:37.439Z,30.80
2018-03-25T10:10:06.399Z,30.00
2018-03-25T10:12:34.543Z,30.00
2018-03-25T10:15:02.659Z,29.90
2018-03-25T10:17:30.800Z,29.90
2018-03-25T10:19:58.912Z,28.90
2018-03-25T10:22:27.056Z,29.60
2018-03-25T10:24:55.195Z,31.20
2018-03-25T10:27:24.098Z,30.80
2018-03-25T10:29:52.249Z,30.70
2018-03-25T10:32:20.379Z,29.70
2018-03-25T10:34:48.500Z,31.30
2018-03-25T10:37:16.625Z,31.70
2018-03-25T10:39:44.744Z,32.70
2018-03-25T10:42:12.884Z,34.80
2018-03-25T10:44:40.988Z,35.40
2018-03-25T10:47:11.478Z,35.20
2018-03-25T10:49:39.599Z,35.20
2018-03-25T10:52:07.744Z,35.10
2018-03-25T10:54:36.644Z,35.60
2018-03-25T10:57:05.514Z,36.70
2018-03-25T10:59:33.651Z,36.60
2018-03-25T11:02:01.774Z,38.30
2018-03-25T11:04:30.679Z,39.30
2018-03-25T11:06:58.791Z,39.30
2018-03-25T11:09:26.926Z,39.70
2018-03-25T11:11:55.183Z,38.70
2018-03-25T11:14:23.292Z,39.20
2018-03-25T11:16:51.416Z,39.30
2018-03-25T11:19:19.555Z,38.60
2018-03-25T11:21:47.677Z,38.90
2018-03-25T11:24:16.584Z,39.80
2018-03-25T11:26:45.460Z,40.50
2018-03-25T11:29:14.395Z,40.60
2018-03-25T11:31:42.495Z,40.70
2018-03-25T11:34:10.637Z,41.30
2018-03-25T11:36:38.746Z,40.70
2018-03-25T11:39:06.896Z,40.40
2018-03-25T11:41:34.999Z,39.40
2018-03-25T11:44:03.242Z,39.70
2018-03-25T11:46:31.350Z,38.50
2018-03-25T11:48:59.494Z,40.40
2018-03-25T11:51:27.606Z,40.90
2018-03-25T11:53:56.525Z,39.40
2018-03-25T11:56:24.645Z,39.40
2018-03-25T11:58:52.781Z,38.90
2018-03-25T12:01:20.903Z,38.70
2018-03-25T12:03:49.050Z,37.00
2018-03-25T12:06:17.174Z,37.00
2018-03-25T12:08:46.075Z,38.10
2018-03-25T12:11:14.999Z,37.80
2018-03-25T12:13:43.187Z,37.80
2018-03-25T12:16:11.298Z,38.60
2018-03-25T12:18:40.200Z,41.20
2018-03-25T12:21:09.110Z,40.40
2018-03-25T12:23:37.235Z,40.40
2018-03-25T12:26:05.343Z,39.20
2018-03-25T12:28:33.480Z,40.00
2018-03-25T12:31:01.591Z,40.10
2018-03-25T12:33:30.483Z,39.20
2018-03-25T12:35:59.399Z,39.50
2018-03-25T12:38:27.543Z,39.50
2018-03-25T12:40:56.411Z,39.20
2018-03-25T12:43:24.550Z,39.20
2018-03-25T12:45:52.669Z,38.40
2018-03-25T12:48:21.576Z,38.10
2018-03-25T12:50:49.698Z,38.10
2018-03-25T12:53:17.826Z,38.20
2018-03-25T12:55:45.948Z,38.90
2018-03-25T12:58:14.089Z,39.40
2018-03-25T13:00:42.192Z,39.20
2018-03-25T13:03:10.332Z,39.50
2018-03-25T13:05:38.441Z,40.40
2018-03-25T13:08:06.555Z,40.30
2018-03-25T13:10:35.514Z,39.10
2018-03-25T13:13:03.592Z,39.00
2018-03-25T13:15:31.724Z,39.60
2018-03-25T13:17:59.835Z,39.20
2018-03-25T13:20:28.399Z,39.50
2018-03-25T13:22:56.520Z,39.60
2018-03-25T13:25:25.411Z,41.70
2018-03-25T13:27:54.296Z,43.90
2018-03-25T13:30:23.194Z,44.50
2018-03-25T13:32:52.076Z,44.40
2018-03-25T13:35:20.989Z,43.60
2018-03-25T13:37:49.111Z,43.50
2018-03-25T13:40:17.245Z,44.90
2018-03-25T13:42:45.355Z,45.80
2018-03-25T13:45:13.491Z,43.90
2018-03-25T13:47:41.604Z,44.40
2018-03-25T13:50:09.744Z,44.20
2018-03-25T13:52:37.847Z,44.10
2018-03-25T13:55:05.977Z,44.50
2018-03-25T13:57:34.093Z,45.50
2018-03-25T14:00:03.015Z,45.20
2018-03-25T14:02:34.911Z,45.20
2018-03-25T14:05:03.043Z,46.30
2018-03-25T14:07:31.158Z,46.20
2018-03-25T14:09:59.296Z,45.80
2018-03-25T14:12:27.408Z,46.10
2018-03-25T14:14:55.534Z,45.70
2018-03-25T14:17:23.643Z,46.00
2018-03-25T14:19:51.771Z,45.50
2018-03-25T14:22:20.663Z,45.60
2018-03-25T14:24:49.568Z,45.40
2018-03-25T14:27:17.679Z,45.40
2018-03-25T14:29:45.816Z,44.60
2018-03-25T14:32:13.927Z,44.90
2018-03-25T14:34:42.056Z,45.10
2018-03-25T14:37:10.173Z,45.80
2018-03-25T14:39:39.036Z,45.20
2018-03-25T14:42:07.157Z,43.90
2018-03-25T14:44:35.295Z,45.00
2018-03-25T14:47:03.476Z,44.70
2018-03-25T14:49:31.616Z,43.90
2018-03-25T14:51:59.722Z,45.40
2018-03-25T14:54:27.868Z,46.20
2018-03-25T14:56:55.975Z,45.20
2018-03-25T14:59:24.116Z,46.10
2018-03-25T15:01:52.259Z,45.30
2018-03-25T15:04:20.370Z,44.30
2018-03-25T15:06:48.476Z,44.70
2018-03-25T15:09:16.640Z,45.50
2018-03-25T15:11:44.752Z,45.50
2018-03-25T15:14:13.658Z,45.70
2018-03-25T15:16:42.537Z,46.90
2018-03-25T15:19:11.452Z,46.40
2018-03-25T15:21:39.562Z,46.30
2018-03-25T15:24:07.692Z,47.50
2018-03-25T15:26:35.808Z,46.10
2018-03-25T15:29:03.921Z,45.60
2018-03-25T15:31:32.828Z,45.70
2018-03-25T15:34:00.949Z,45.70
2018-03-25T15:36:29.084Z,47.00
2018-03-25T15:38:57.201Z,47.10
2018-03-25T15:41:25.334Z,47.00
2018-03-25T15:43:53.444Z,48.30
2018-03-25T15:46:21.596Z,47.90
2018-03-25T15:48:49.709Z,48.90
2018-03-25T15:51:17.860Z,48.80
2018-03-25T15:53:45.974Z,49.10
2018-03-25T15:56:14.887Z,49.90
2018-03-25T15:58:43.001Z,49.90
2018-03-25T16:01:11.153Z,48.90
2018-03-25T16:03:39.255Z,49.70
2018-03-25T16:06:07.405Z,49.70
2018-03-25T16:08:35.542Z,48.00
2018-03-25T16:11:04.469Z,46.90
2018-03-25T16:13:33.418Z,47.00
2018-03-25T16:16:02.470Z,47.50
2018-03-25T16:18:30.690Z,47.40
2018-03-25T16:20:59.594Z,47.90
2018-03-25T16:23:27.719Z,47.90
2018-03-25T16:25:55.864Z,49.10
2018-03-25T16:28:23.985Z,49.10
2018-03-25T16:30:52.183Z,49.30
2018-03-25T16:33:21.088Z,50.00
2018-03-25T16:35:49.220Z,50.00
2018-03-25T16:38:17.344Z,50.00
2018-03-25T16:40:45.497Z,49.50
2018-03-25T16:43:14.369Z,50.90
2018-03-25T16:45:42.509Z,50.90
2018-03-25T16:48:10.628Z,51.60
2018-03-25T16:50:42.182Z,52.70
2018-03-25T16:53:11.089Z,50.60
2018-03-25T16:55:40.019Z,50.60
2018-03-25T16:58:08.152Z,50.60
2018-03-25T17:00:37.184Z,50.20
2018-03-25T17:03:05.328Z,50.20
2018-03-25T17:05:33.492Z,49.70
2018-03-25T17:08:02.368Z,51.50
2018-03-25T17:10:30.536Z,51.50
2018-03-25T17:12:59.337Z,51.70
2018-03-25T17:15:27.462Z,51.90
2018-03-25T17:17:55.586Z,52.00
2018-03-25T17:20:23.728Z,52.20
2018-03-25T17:22:51.910Z,51.30
2018-03-25T17:25:20.064Z,52.20
2018-03-25T17:27:48.175Z,52.40
2018-03-25T17:30:16.319Z,53.00
2018-03-25T17:32:44.439Z,54.50
2018-03-25T17:35:12.618Z,55.10
2018-03-25T17:37:41.498Z,58.50
2018-03-25T17:40:09.647Z,58.50
2018-03-25T17:42:37.778Z,59.10
2018-03-25T17:45:05.930Z,59.00
2018-03-25T17:47:34.825Z,59.80
2018-03-25T17:50:03.203Z,59.80
2018-03-25T17:52:31.445Z,60.70
2018-03-25T17:55:00.213Z,61.90
2018-03-25T17:57:28.343Z,62.00
2018-03-25T17:59:57.317Z,62.40
2018-03-25T18:02:25.502Z,62.40
2018-03-25T18:04:54.400Z,62.20
2018-03-25T18:07:22.564Z,62.20
2018-03-25T18:09:50.686Z,62.40
2018-03-25T18:12:18.840Z,61.80
2018-03-25T18:14:46.980Z,61.40
2018-03-25T18:17:33.463Z,61.10
2018-03-25T18:19:43.271Z,60.30
2018-03-25T18:22:11.403Z,60.10
2018-03-25T18:24:39.525Z,59.90
2018-03-25T18:27:07.655Z,59.40
2018-03-25T18:29:35.768Z,58.60
2018-03-25T18:32:03.908Z,58.50
2018-03-25T18:34:32.792Z,63.40
2018-03-25T18:37:00.934Z,63.20
2018-03-25T18:39:29.062Z,62.50
2018-03-25T18:41:57.963Z,62.80
2018-03-25T18:44:26.296Z,62.90
2018-03-25T18:46:54.489Z,63.10
2018-03-25T18:49:23.369Z,64.50
2018-03-25T18:51:51.781Z,64.50
2018-03-25T18:54:20.677Z,64.10
2018-03-25T18:56:48.836Z,64.10
2018-03-25T18:59:17.717Z,64.40
2018-03-25T19:01:45.848Z,64.30
2018-03-25T19:04:13.952Z,63.90
2018-03-25T19:06:42.105Z,63.80
2018-03-25T19:09:10.210Z,63.90
2018-03-25T19:11:39.132Z,63.90
2018-03-25T19:14:07.239Z,63.80
2018-03-25T19:16:35.366Z,64.20
2018-03-25T19:19:03.480Z,65.70
2018-03-25T19:21:31.617Z,64.50
2018-03-25T19:23:59.724Z,64.70
2018-03-25T19:26:27.850Z,65.50
2018-03-25T19:28:56.723Z,65.50
2018-03-25T19:31:24.873Z,65.50
2018-03-25T19:33:52.985Z,65.50
2018-03-25T19:36:21.955Z,64.50
2018-03-25T19:38:50.052Z,64.50
2018-03-25T19:41:18.943Z,65.70
2018-03-25T19:43:47.143Z,65.80
2018-03-25T19:46:15.338Z,68.30
2018-03-25T19:48:43.512Z,67.70
2018-03-25T19:51:11.838Z,67.60
2018-03-25T19:53:40.496Z,67.20
2018-03-25T19:56:08.819Z,68.80
2018-03-25T19:58:36.945Z,68.60
2018-03-25T20:01:05.084Z,68.50
2018-03-25T20:03:33.217Z,69.20
2018-03-25T20:06:01.374Z,68.40
2018-03-25T20:08:29.728Z,68.70
2018-03-25T20:10:57.880Z,68.70
2018-03-25T20:13:26.771Z,68.20
2018-03-25T20:15:55.713Z,68.10
2018-03-25T20:18:23.823Z,68.10
2018-03-25T20:20:52.183Z,67.90
2018-03-25T20:23:20.531Z,67.80
2018-03-25T20:25:48.671Z,68.00
2018-03-25T20:28:17.572Z,68.80
2018-03-25T20:30:46.226Z,68.80
2018-03-25T20:33:14.566Z,69.60
2018-03-25T20:35:42.956Z,69.70
2018-03-25T20:38:11.392Z,70.20
2018-03-25T20:40:40.285Z,70.80
2018-03-25T20:43:09.450Z,71.40
2018-03-25T20:45:37.556Z,71.40
2018-03-25T20:48:05.817Z,72.00
2018-03-25T20:50:34.692Z,71.30
2018-03-25T20:53:04.665Z,71.20
2018-03-25T20:55:32.819Z,72.30
2018-03-25T20:58:00.991Z,72.30
2018-03-25T21:00:29.862Z,71.30
2018-03-25T21:02:58.756Z,71.00
2018-03-25T21:05:26.859Z,71.10
2018-03-25T21:07:55.008Z,71.60
2018-03-25T21:10:23.879Z,71.90
2018-03-25T21:12:52.029Z,71.90
2018-03-25T21:15:20.137Z,72.00
2018-03-25T21:17:48.278Z,71.60
2018-03-25T21:20:16.379Z,71.40
2018-03-25T21:22:44.512Z,70.40
2018-03-25T21:25:12.630Z,71.40
2018-03-25T21:27:40.764Z,71.00
2018-03-25T21:30:08.872Z,71.10
2018-03-25T21:32:37.004Z,70.60
2018-03-25T21:35:05.137Z,69.80
2018-03-25T21:37:34.042Z,71.10
2018-03-25T21:40:02.934Z,71.90
2018-03-25T21:42:31.819Z,71.70
2018-03-25T21:45:00.703Z,71.50
2018-03-25T21:47:28.830Z,71.50
2018-03-25T21:50:02.870Z,71.90
2018-03-25T21:52:31.029Z,72.30
2018-03-25T21:54:59.149Z,71.30
2018-03-25T21:57:27.284Z,71.40
2018-03-25T21:59:55.416Z,70.90
2018-03-25T22:02:23.544Z,70.40
2018-03-25T22:04:52.425Z,70.50
2018-03-25T22:07:20.542Z,70.50
2018-03-25T22:09:48.642Z,70.60
2018-03-25T22:12:16.779Z,71.80
2018-03-25T22:14:44.896Z,73.10
2018-03-25T22:17:13.024Z,73.50
2018-03-25T22:19:41.139Z,74.30
2018-03-25T22:22:09.283Z,73.60
2018-03-25T22:24:37.414Z,73.60
2018-03-25T22:27:05.593Z,73.40
2018-03-25T22:29:34.466Z,74.00
2018-03-25T22:32:02.609Z,73.80
2018-03-25T22:34:30.722Z,73.80
2018-03-25T22:36:58.860Z,73.60
2018-03-25T22:39:27.878Z,73.20
2018-03-25T22:41:56.008Z,73.10
2018-03-25T22:44:24.149Z,74.00
2018-03-25T22:46:53.043Z,73.50
2018-03-25T22:49:21.926Z,73.00
2018-03-25T22:51:50.056Z,72.90
2018-03-25T22:54:18.163Z,72.90
2018-03-25T22:56:46.304Z,72.80
2018-03-25T22:59:14.418Z,73.00
2018-03-25T23:01:42.583Z,72.90
2018-03-25T23:04:10.687Z,73.10
2018-03-25T23:06:38.787Z,73.30
2018-03-25T23:09:06.935Z,73.50
2018-03-25T23:11:35.040Z,73.70
2018-03-25T23:14:03.261Z,74.10
2018-03-25T23:16:32.140Z,74.70
2018-03-25T23:19:00.275Z,74.70
2018-03-25T23:21:28.379Z,74.70
2018-03-25T23:23:56.536Z,74.90
2018-03-25T23:26:24.652Z,74.90
2018-03-25T23:28:53.632Z,75.00
2018-03-25T23:31:21.736Z,75.20
2018-03-25T23:33:49.879Z,74.50
2018-03-25T23:36:18.013Z,74.20
2018-03-25T23:38:46.149Z,74.20
2018-03-25T23:41:14.259Z,74.40
2018-03-25T23:43:42.392Z,74.60
2018-03-25T23:46:10.524Z,75.40
2018-03-25T23:48:38.651Z,76.80
2018-03-25T23:51:06.773Z,77.00
2018-03-25T23:53:34.898Z,76.90
2018-03-25T23:56:03.109Z,76.80
2018-03-25T23:58:31.252Z,76.60
